sensor_id;sensor_type;location;lat;lon;timestamp;P1;durP1;ratioP1;P2;durP2;ratioP2
6850;SDS011;3464;42.728;23.296;2023-02-03T00:01:24;12.43;;;4.60;;
6850;SDS011;3464;42.728;23.296;2023-02-03T00:03:51;12.17;;;4.77;;
6850;SDS011;3464;42.728;23.296;2023-02-03T00:06:17;11.40;;;4.63;;
6850;SDS011;3464;42.728;23.296;2023-02-03T00:08:44;11.77;;;5.03;;
6850;SDS011;3464;42.728;23.296;2023-02-03T00:11:11;14.17;;;5.10;;
6850;SDS011;3464;42.728;23.296;2023-02-03T00:13:37;12.43;;;5.17;;
6850;SDS011;3464;42.728;23.296;2023-02-03T00:16:06;11.67;;;5.20;;
6850;SDS011;3464;42.728;23.296;2023-02-03T00:18:36;12.70;;;5.43;;
6850;SDS011;3464;42.728;23.296;2023-02-03T00:21:04;12.37;;;5.40;;
6850;SDS011;3464;42.728;23.296;2023-02-03T00:23:30;21.83;;;6.00;;
6850;SDS011;3464;42.728;23.296;2023-02-03T00:25:59;12.27;;;4.83;;
6850;SDS011;3464;42.728;23.296;2023-02-03T00:28:24;13.40;;;5.43;;
6850;SDS011;3464;42.728;23.296;2023-02-03T00:30:51;14.10;;;5.77;;
6850;SDS011;3464;42.728;23.296;2023-02-03T00:33:19;13.17;;;5.40;;
6850;SDS011;3464;42.728;23.296;2023-02-03T00:35:45;11.63;;;4.97;;
6850;SDS011;3464;42.728;23.296;2023-02-03T00:38:13;13.10;;;4.90;;
6850;SDS011;3464;42.728;23.296;2023-02-03T00:40:50;14.43;;;5.27;;
6850;SDS011;3464;42.728;23.296;2023-02-03T00:43:10;13.77;;;5.80;;
6850;SDS011;3464;42.728;23.296;2023-02-03T00:45:36;13.70;;;5.30;;
6850;SDS011;3464;42.728;23.296;2023-02-03T00:48:05;14.03;;;5.50;;
6850;SDS011;3464;42.728;23.296;2023-02-03T00:50:32;14.67;;;5.70;;
6850;SDS011;3464;42.728;23.296;2023-02-03T00:52:59;13.30;;;5.23;;
6850;SDS011;3464;42.728;23.296;2023-02-03T00:55:32;12.83;;;5.47;;
6850;SDS011;3464;42.728;23.296;2023-02-03T00:58:01;12.73;;;5.17;;
6850;SDS011;3464;42.728;23.296;2023-02-03T01:00:27;12.63;;;5.50;;
6850;SDS011;3464;42.728;23.296;2023-02-03T01:02:54;12.10;;;5.40;;
6850;SDS011;3464;42.728;23.296;2023-02-03T01:05:22;13.23;;;5.70;;
6850;SDS011;3464;42.728;23.296;2023-02-03T01:07:48;16.27;;;4.90;;
6850;SDS011;3464;42.728;23.296;2023-02-03T01:10:16;11.10;;;4.93;;
6850;SDS011;3464;42.728;23.296;2023-02-03T01:12:42;12.60;;;5.30;;
6850;SDS011;3464;42.728;23.296;2023-02-03T01:15:09;10.90;;;4.80;;
6850;SDS011;3464;42.728;23.296;2023-02-03T01:17:36;12.40;;;4.70;;
6850;SDS011;3464;42.728;23.296;2023-02-03T01:20:05;11.00;;;4.47;;
6850;SDS011;3464;42.728;23.296;2023-02-03T01:22:31;12.70;;;4.57;;
6850;SDS011;3464;42.728;23.296;2023-02-03T01:24:59;13.40;;;4.37;;
6850;SDS011;3464;42.728;23.296;2023-02-03T01:27:26;9.80;;;3.53;;
6850;SDS011;3464;42.728;23.296;2023-02-03T01:29:52;9.60;;;3.53;;
6850;SDS011;3464;42.728;23.296;2023-02-03T01:32:19;12.60;;;3.77;;
6850;SDS011;3464;42.728;23.296;2023-02-03T01:34:45;9.90;;;3.60;;
6850;SDS011;3464;42.728;23.296;2023-02-03T01:37:12;14.93;;;3.70;;
6850;SDS011;3464;42.728;23.296;2023-02-03T01:39:38;9.90;;;3.80;;
6850;SDS011;3464;42.728;23.296;2023-02-03T01:42:07;10.50;;;3.27;;
6850;SDS011;3464;42.728;23.296;2023-02-03T01:44:42;11.80;;;3.83;;
6850;SDS011;3464;42.728;23.296;2023-02-03T01:47:12;10.70;;;3.57;;
6850;SDS011;3464;42.728;23.296;2023-02-03T01:49:57;11.83;;;3.40;;
6850;SDS011;3464;42.728;23.296;2023-02-03T01:52:23;10.73;;;3.30;;
6850;SDS011;3464;42.728;23.296;2023-02-03T01:54:49;10.23;;;3.07;;
6850;SDS011;3464;42.728;23.296;2023-02-03T01:57:19;8.90;;;2.97;;
6850;SDS011;3464;42.728;23.296;2023-02-03T01:59:45;10.10;;;3.00;;
6850;SDS011;3464;42.728;23.296;2023-02-03T02:02:12;9.73;;;2.90;;
6850;SDS011;3464;42.728;23.296;2023-02-03T02:04:54;9.33;;;2.93;;
6850;SDS011;3464;42.728;23.296;2023-02-03T02:07:19;9.43;;;3.47;;
6850;SDS011;3464;42.728;23.296;2023-02-03T02:09:45;10.63;;;3.33;;
6850;SDS011;3464;42.728;23.296;2023-02-03T02:12:13;11.77;;;3.40;;
6850;SDS011;3464;42.728;23.296;2023-02-03T02:17:21;9.10;;;3.23;;
6850;SDS011;3464;42.728;23.296;2023-02-03T02:19:48;9.70;;;3.20;;
6850;SDS011;3464;42.728;23.296;2023-02-03T02:22:17;9.20;;;3.20;;
6850;SDS011;3464;42.728;23.296;2023-02-03T02:28:08;9.97;;;3.50;;
6850;SDS011;3464;42.728;23.296;2023-02-03T02:30:37;11.00;;;3.77;;
6850;SDS011;3464;42.728;23.296;2023-02-03T02:38:56;12.07;;;3.97;;
6850;SDS011;3464;42.728;23.296;2023-02-03T02:41:24;10.33;;;4.30;;
6850;SDS011;3464;42.728;23.296;2023-02-03T02:46:38;9.90;;;4.00;;
6850;SDS011;3464;42.728;23.296;2023-02-03T02:49:08;10.20;;;4.17;;
6850;SDS011;3464;42.728;23.296;2023-02-03T02:51:47;10.70;;;3.93;;
6850;SDS011;3464;42.728;23.296;2023-02-03T02:56:52;9.60;;;3.90;;
6850;SDS011;3464;42.728;23.296;2023-02-03T02:59:18;11.07;;;4.40;;
6850;SDS011;3464;42.728;23.296;2023-02-03T03:01:45;11.63;;;4.23;;
6850;SDS011;3464;42.728;23.296;2023-02-03T03:04:16;9.67;;;3.77;;
6850;SDS011;3464;42.728;23.296;2023-02-03T03:06:45;11.60;;;4.40;;
6850;SDS011;3464;42.728;23.296;2023-02-03T03:11:50;11.23;;;4.00;;
6850;SDS011;3464;42.728;23.296;2023-02-03T03:16:53;11.67;;;4.47;;
6850;SDS011;3464;42.728;23.296;2023-02-03T03:19:22;11.73;;;4.30;;
6850;SDS011;3464;42.728;23.296;2023-02-03T03:21:49;10.00;;;3.77;;
6850;SDS011;3464;42.728;23.296;2023-02-03T03:24:16;10.37;;;4.10;;
6850;SDS011;3464;42.728;23.296;2023-02-03T03:26:45;11.10;;;4.30;;
6850;SDS011;3464;42.728;23.296;2023-02-03T03:29:17;10.20;;;4.20;;
6850;SDS011;3464;42.728;23.296;2023-02-03T03:31:45;10.80;;;4.50;;
6850;SDS011;3464;42.728;23.296;2023-02-03T03:34:12;11.27;;;4.00;;
6850;SDS011;3464;42.728;23.296;2023-02-03T03:36:45;11.07;;;4.13;;
6850;SDS011;3464;42.728;23.296;2023-02-03T03:41:53;10.83;;;4.37;;
6850;SDS011;3464;42.728;23.296;2023-02-03T03:44:18;12.03;;;4.57;;
6850;SDS011;3464;42.728;23.296;2023-02-03T03:46:47;10.87;;;4.17;;
6850;SDS011;3464;42.728;23.296;2023-02-03T03:49:12;9.70;;;3.57;;
6850;SDS011;3464;42.728;23.296;2023-02-03T03:51:40;9.77;;;3.87;;
6850;SDS011;3464;42.728;23.296;2023-02-03T03:54:07;10.73;;;4.10;;
6850;SDS011;3464;42.728;23.296;2023-02-03T03:56:37;10.30;;;4.20;;
6850;SDS011;3464;42.728;23.296;2023-02-03T03:59:04;10.47;;;4.20;;
6850;SDS011;3464;42.728;23.296;2023-02-03T04:01:30;11.10;;;4.20;;
6850;SDS011;3464;42.728;23.296;2023-02-03T04:03:59;10.63;;;3.90;;
6850;SDS011;3464;42.728;23.296;2023-02-03T04:06:26;11.50;;;4.13;;
6850;SDS011;3464;42.728;23.296;2023-02-03T04:08:52;11.67;;;4.73;;
6850;SDS011;3464;42.728;23.296;2023-02-03T04:11:19;10.00;;;4.20;;
6850;SDS011;3464;42.728;23.296;2023-02-03T04:14:03;12.40;;;4.30;;
6850;SDS011;3464;42.728;23.296;2023-02-03T04:16:30;10.33;;;3.70;;
6850;SDS011;3464;42.728;23.296;2023-02-03T04:18:57;11.33;;;4.13;;
6850;SDS011;3464;42.728;23.296;2023-02-03T04:21:23;9.50;;;3.43;;
6850;SDS011;3464;42.728;23.296;2023-02-03T04:23:50;10.10;;;4.23;;
6850;SDS011;3464;42.728;23.296;2023-02-03T04:26:17;11.10;;;4.03;;
6850;SDS011;3464;42.728;23.296;2023-02-03T04:28:44;10.53;;;3.60;;
6850;SDS011;3464;42.728;23.296;2023-02-03T04:31:11;15.17;;;3.50;;
6850;SDS011;3464;42.728;23.296;2023-02-03T04:33:37;9.40;;;3.70;;
6850;SDS011;3464;42.728;23.296;2023-02-03T04:36:05;9.40;;;3.60;;
6850;SDS011;3464;42.728;23.296;2023-02-03T04:38:32;11.00;;;3.10;;
6850;SDS011;3464;42.728;23.296;2023-02-03T04:40:59;9.87;;;3.80;;
6850;SDS011;3464;42.728;23.296;2023-02-03T04:43:26;10.17;;;3.67;;
6850;SDS011;3464;42.728;23.296;2023-02-03T04:45:53;9.53;;;3.63;;
6850;SDS011;3464;42.728;23.296;2023-02-03T04:48:20;9.90;;;3.70;;
6850;SDS011;3464;42.728;23.296;2023-02-03T04:50:47;11.57;;;3.80;;
6850;SDS011;3464;42.728;23.296;2023-02-03T04:53:17;11.03;;;3.37;;
6850;SDS011;3464;42.728;23.296;2023-02-03T04:55:46;8.80;;;3.57;;
6850;SDS011;3464;42.728;23.296;2023-02-03T04:58:14;9.63;;;3.40;;
6850;SDS011;3464;42.728;23.296;2023-02-03T05:00:42;9.00;;;3.60;;
6850;SDS011;3464;42.728;23.296;2023-02-03T05:03:10;8.90;;;3.20;;
6850;SDS011;3464;42.728;23.296;2023-02-03T05:05:39;9.93;;;3.63;;
6850;SDS011;3464;42.728;23.296;2023-02-03T05:08:08;9.33;;;3.60;;
6850;SDS011;3464;42.728;23.296;2023-02-03T05:10:41;10.57;;;4.10;;
6850;SDS011;3464;42.728;23.296;2023-02-03T05:13:11;10.03;;;3.93;;
6850;SDS011;3464;42.728;23.296;2023-02-03T05:15:47;9.67;;;4.00;;
6850;SDS011;3464;42.728;23.296;2023-02-03T05:18:15;11.13;;;4.53;;
6850;SDS011;3464;42.728;23.296;2023-02-03T05:20:41;11.00;;;4.40;;
6850;SDS011;3464;42.728;23.296;2023-02-03T05:23:15;10.83;;;4.07;;
6850;SDS011;3464;42.728;23.296;2023-02-03T05:25:48;11.10;;;4.80;;
6850;SDS011;3464;42.728;23.296;2023-02-03T05:28:15;10.63;;;4.70;;
6850;SDS011;3464;42.728;23.296;2023-02-03T05:30:44;12.73;;;4.97;;
6850;SDS011;3464;42.728;23.296;2023-02-03T05:33:12;11.80;;;4.90;;
6850;SDS011;3464;42.728;23.296;2023-02-03T05:35:42;12.47;;;4.90;;
6850;SDS011;3464;42.728;23.296;2023-02-03T05:38:12;11.13;;;5.70;;
6850;SDS011;3464;42.728;23.296;2023-02-03T05:40:39;13.20;;;5.00;;
6850;SDS011;3464;42.728;23.296;2023-02-03T05:43:11;12.10;;;5.13;;
6850;SDS011;3464;42.728;23.296;2023-02-03T05:45:38;11.43;;;5.27;;
6850;SDS011;3464;42.728;23.296;2023-02-03T05:48:05;11.40;;;5.10;;
6850;SDS011;3464;42.728;23.296;2023-02-03T05:50:33;10.53;;;5.03;;
6850;SDS011;3464;42.728;23.296;2023-02-03T05:53:01;14.20;;;5.70;;
6850;SDS011;3464;42.728;23.296;2023-02-03T05:55:29;15.47;;;5.80;;
6850;SDS011;3464;42.728;23.296;2023-02-03T05:57:56;13.50;;;5.43;;
6850;SDS011;3464;42.728;23.296;2023-02-03T06:00:38;13.90;;;4.57;;
6850;SDS011;3464;42.728;23.296;2023-02-03T06:03:04;13.07;;;4.97;;
6850;SDS011;3464;42.728;23.296;2023-02-03T06:05:31;12.13;;;5.40;;
6850;SDS011;3464;42.728;23.296;2023-02-03T06:07:57;17.03;;;5.57;;
6850;SDS011;3464;42.728;23.296;2023-02-03T06:10:24;13.23;;;5.60;;
6850;SDS011;3464;42.728;23.296;2023-02-03T06:12:52;12.53;;;6.07;;
6850;SDS011;3464;42.728;23.296;2023-02-03T06:15:19;11.63;;;5.30;;
6850;SDS011;3464;42.728;23.296;2023-02-03T06:17:46;11.50;;;4.40;;
6850;SDS011;3464;42.728;23.296;2023-02-03T06:20:13;14.50;;;4.87;;
6850;SDS011;3464;42.728;23.296;2023-02-03T06:22:39;11.53;;;4.63;;
6850;SDS011;3464;42.728;23.296;2023-02-03T06:25:06;12.33;;;4.67;;
6850;SDS011;3464;42.728;23.296;2023-02-03T06:27:34;11.60;;;4.60;;
6850;SDS011;3464;42.728;23.296;2023-02-03T06:30:00;12.77;;;4.20;;
6850;SDS011;3464;42.728;23.296;2023-02-03T06:32:27;11.13;;;3.90;;
6850;SDS011;3464;42.728;23.296;2023-02-03T06:34:54;10.50;;;3.70;;
6850;SDS011;3464;42.728;23.296;2023-02-03T06:37:21;11.13;;;3.87;;
6850;SDS011;3464;42.728;23.296;2023-02-03T06:39:53;11.37;;;4.50;;
6850;SDS011;3464;42.728;23.296;2023-02-03T06:42:20;11.07;;;4.30;;
6850;SDS011;3464;42.728;23.296;2023-02-03T06:44:52;12.63;;;4.10;;
6850;SDS011;3464;42.728;23.296;2023-02-03T06:47:20;11.30;;;3.97;;
6850;SDS011;3464;42.728;23.296;2023-02-03T06:49:48;13.17;;;4.40;;
6850;SDS011;3464;42.728;23.296;2023-02-03T06:52:17;11.23;;;4.37;;
6850;SDS011;3464;42.728;23.296;2023-02-03T06:54:44;12.93;;;5.60;;
6850;SDS011;3464;42.728;23.296;2023-02-03T06:57:12;12.37;;;5.03;;
6850;SDS011;3464;42.728;23.296;2023-02-03T06:59:40;14.20;;;6.90;;
6850;SDS011;3464;42.728;23.296;2023-02-03T07:02:08;17.50;;;8.50;;
6850;SDS011;3464;42.728;23.296;2023-02-03T07:04:33;16.97;;;9.83;;
6850;SDS011;3464;42.728;23.296;2023-02-03T07:07:01;14.77;;;6.80;;
6850;SDS011;3464;42.728;23.296;2023-02-03T07:09:30;12.43;;;5.60;;
6850;SDS011;3464;42.728;23.296;2023-02-03T07:11:57;10.80;;;4.27;;
6850;SDS011;3464;42.728;23.296;2023-02-03T07:14:23;11.10;;;4.57;;
6850;SDS011;3464;42.728;23.296;2023-02-03T07:16:50;10.13;;;4.00;;
6850;SDS011;3464;42.728;23.296;2023-02-03T07:19:25;12.20;;;3.93;;
6850;SDS011;3464;42.728;23.296;2023-02-03T07:21:53;10.00;;;3.60;;
6850;SDS011;3464;42.728;23.296;2023-02-03T07:24:23;10.80;;;4.13;;
6850;SDS011;3464;42.728;23.296;2023-02-03T07:26:52;9.57;;;3.63;;
6850;SDS011;3464;42.728;23.296;2023-02-03T07:29:18;11.27;;;3.80;;
6850;SDS011;3464;42.728;23.296;2023-02-03T07:31:45;10.10;;;4.00;;
6850;SDS011;3464;42.728;23.296;2023-02-03T07:34:12;9.40;;;3.27;;
6850;SDS011;3464;42.728;23.296;2023-02-03T07:36:40;11.67;;;3.70;;
6850;SDS011;3464;42.728;23.296;2023-02-03T07:39:08;9.47;;;2.93;;
6850;SDS011;3464;42.728;23.296;2023-02-03T07:41:42;10.80;;;3.40;;
6850;SDS011;3464;42.728;23.296;2023-02-03T07:44:09;9.30;;;3.20;;
6850;SDS011;3464;42.728;23.296;2023-02-03T07:46:36;9.80;;;3.10;;
6850;SDS011;3464;42.728;23.296;2023-02-03T07:49:05;9.10;;;3.07;;
6850;SDS011;3464;42.728;23.296;2023-02-03T07:51:33;14.10;;;3.37;;
6850;SDS011;3464;42.728;23.296;2023-02-03T07:54:00;10.10;;;3.87;;
6850;SDS011;3464;42.728;23.296;2023-02-03T07:56:28;13.40;;;4.10;;
6850;SDS011;3464;42.728;23.296;2023-02-03T07:58:56;11.53;;;3.67;;
6850;SDS011;3464;42.728;23.296;2023-02-03T08:01:23;10.50;;;3.27;;
6850;SDS011;3464;42.728;23.296;2023-02-03T08:03:51;11.07;;;2.87;;
6850;SDS011;3464;42.728;23.296;2023-02-03T08:06:18;10.27;;;3.00;;
6850;SDS011;3464;42.728;23.296;2023-02-03T08:08:45;9.80;;;3.50;;
6850;SDS011;3464;42.728;23.296;2023-02-03T08:11:13;9.17;;;2.77;;
6850;SDS011;3464;42.728;23.296;2023-02-03T08:13:40;9.63;;;3.10;;
6850;SDS011;3464;42.728;23.296;2023-02-03T08:16:06;12.03;;;3.47;;
6850;SDS011;3464;42.728;23.296;2023-02-03T08:18:33;12.33;;;3.37;;
6850;SDS011;3464;42.728;23.296;2023-02-03T08:21:01;11.90;;;4.10;;
6850;SDS011;3464;42.728;23.296;2023-02-03T08:23:28;10.70;;;3.30;;
6850;SDS011;3464;42.728;23.296;2023-02-03T08:25:55;10.80;;;3.30;;
6850;SDS011;3464;42.728;23.296;2023-02-03T08:28:24;10.13;;;3.37;;
6850;SDS011;3464;42.728;23.296;2023-02-03T08:30:51;11.67;;;2.83;;
6850;SDS011;3464;42.728;23.296;2023-02-03T08:33:18;10.57;;;2.90;;
6850;SDS011;3464;42.728;23.296;2023-02-03T08:35:47;10.30;;;3.00;;
6850;SDS011;3464;42.728;23.296;2023-02-03T08:38:13;9.87;;;2.60;;
6850;SDS011;3464;42.728;23.296;2023-02-03T08:40:41;8.03;;;2.20;;
6850;SDS011;3464;42.728;23.296;2023-02-03T08:43:08;10.17;;;2.30;;
6850;SDS011;3464;42.728;23.296;2023-02-03T08:45:37;10.33;;;2.83;;
6850;SDS011;3464;42.728;23.296;2023-02-03T08:48:05;8.67;;;2.40;;
6850;SDS011;3464;42.728;23.296;2023-02-03T08:50:34;10.47;;;2.70;;
6850;SDS011;3464;42.728;23.296;2023-02-03T08:53:01;10.03;;;2.40;;
6850;SDS011;3464;42.728;23.296;2023-02-03T08:55:27;8.80;;;2.50;;
6850;SDS011;3464;42.728;23.296;2023-02-03T08:57:54;9.33;;;2.60;;
6850;SDS011;3464;42.728;23.296;2023-02-03T09:00:21;11.17;;;3.30;;
6850;SDS011;3464;42.728;23.296;2023-02-03T09:02:48;11.63;;;2.83;;
6850;SDS011;3464;42.728;23.296;2023-02-03T09:05:15;13.17;;;3.07;;
6850;SDS011;3464;42.728;23.296;2023-02-03T09:07:42;10.90;;;2.70;;
6850;SDS011;3464;42.728;23.296;2023-02-03T09:10:09;10.30;;;2.60;;
6850;SDS011;3464;42.728;23.296;2023-02-03T09:12:36;11.03;;;2.70;;
6850;SDS011;3464;42.728;23.296;2023-02-03T09:15:03;10.37;;;2.87;;
6850;SDS011;3464;42.728;23.296;2023-02-03T09:17:30;11.90;;;3.07;;
6850;SDS011;3464;42.728;23.296;2023-02-03T09:19:57;9.40;;;2.33;;
6850;SDS011;3464;42.728;23.296;2023-02-03T09:22:23;10.40;;;2.87;;
6850;SDS011;3464;42.728;23.296;2023-02-03T09:24:50;10.37;;;3.20;;
6850;SDS011;3464;42.728;23.296;2023-02-03T09:27:17;9.87;;;2.60;;
6850;SDS011;3464;42.728;23.296;2023-02-03T09:29:44;8.70;;;2.27;;
6850;SDS011;3464;42.728;23.296;2023-02-03T09:32:11;9.33;;;2.90;;
6850;SDS011;3464;42.728;23.296;2023-02-03T09:34:37;10.57;;;2.90;;
6850;SDS011;3464;42.728;23.296;2023-02-03T09:37:05;9.57;;;2.77;;
6850;SDS011;3464;42.728;23.296;2023-02-03T09:39:39;9.10;;;2.63;;
6850;SDS011;3464;42.728;23.296;2023-02-03T09:42:32;9.70;;;2.80;;
6850;SDS011;3464;42.728;23.296;2023-02-03T09:47:44;8.97;;;2.63;;
6850;SDS011;3464;42.728;23.296;2023-02-03T09:50:18;11.37;;;2.30;;
6850;SDS011;3464;42.728;23.296;2023-02-03T09:52:44;10.60;;;2.73;;
6850;SDS011;3464;42.728;23.296;2023-02-03T09:55:33;9.20;;;2.50;;
6850;SDS011;3464;42.728;23.296;2023-02-03T09:58:12;10.10;;;2.30;;
6850;SDS011;3464;42.728;23.296;2023-02-03T10:06:26;9.90;;;3.07;;
6850;SDS011;3464;42.728;23.296;2023-02-03T10:09:00;8.93;;;2.40;;
6850;SDS011;3464;42.728;23.296;2023-02-03T10:12:01;9.00;;;2.57;;
6850;SDS011;3464;42.728;23.296;2023-02-03T10:17:28;9.57;;;2.50;;
6850;SDS011;3464;42.728;23.296;2023-02-03T10:20:15;11.73;;;2.70;;
6850;SDS011;3464;42.728;23.296;2023-02-03T10:22:43;8.90;;;2.50;;
6850;SDS011;3464;42.728;23.296;2023-02-03T10:25:15;8.70;;;2.40;;
6850;SDS011;3464;42.728;23.296;2023-02-03T10:27:43;9.43;;;2.50;;
6850;SDS011;3464;42.728;23.296;2023-02-03T10:32:45;10.87;;;2.63;;
6850;SDS011;3464;42.728;23.296;2023-02-03T10:35:20;9.70;;;2.47;;
6850;SDS011;3464;42.728;23.296;2023-02-03T10:37:49;8.83;;;2.43;;
6850;SDS011;3464;42.728;23.296;2023-02-03T10:40:20;10.43;;;2.93;;
6850;SDS011;3464;42.728;23.296;2023-02-03T10:42:48;10.03;;;2.90;;
6850;SDS011;3464;42.728;23.296;2023-02-03T10:45:22;10.53;;;2.73;;
6850;SDS011;3464;42.728;23.296;2023-02-03T10:47:56;8.60;;;2.00;;
6850;SDS011;3464;42.728;23.296;2023-02-03T10:51:03;13.03;;;2.37;;
6850;SDS011;3464;42.728;23.296;2023-02-03T10:53:33;11.87;;;2.77;;
6850;SDS011;3464;42.728;23.296;2023-02-03T10:56:04;9.30;;;2.27;;
6850;SDS011;3464;42.728;23.296;2023-02-03T10:58:34;10.50;;;2.60;;
6850;SDS011;3464;42.728;23.296;2023-02-03T11:01:05;11.27;;;2.27;;
6850;SDS011;3464;42.728;23.296;2023-02-03T11:03:33;11.07;;;2.37;;
6850;SDS011;3464;42.728;23.296;2023-02-03T11:06:05;10.10;;;2.20;;
6850;SDS011;3464;42.728;23.296;2023-02-03T11:08:54;9.47;;;2.67;;
6850;SDS011;3464;42.728;23.296;2023-02-03T11:11:25;10.20;;;2.77;;
6850;SDS011;3464;42.728;23.296;2023-02-03T11:14:18;11.03;;;2.37;;
6850;SDS011;3464;42.728;23.296;2023-02-03T11:17:16;9.47;;;2.63;;
6850;SDS011;3464;42.728;23.296;2023-02-03T11:22:30;9.87;;;2.73;;
6850;SDS011;3464;42.728;23.296;2023-02-03T11:24:57;9.00;;;2.40;;
6850;SDS011;3464;42.728;23.296;2023-02-03T11:27:24;9.13;;;2.53;;
6850;SDS011;3464;42.728;23.296;2023-02-03T11:30:05;9.03;;;2.13;;
6850;SDS011;3464;42.728;23.296;2023-02-03T11:32:21;9.63;;;2.53;;
6850;SDS011;3464;42.728;23.296;2023-02-03T11:37:38;10.20;;;2.90;;
6850;SDS011;3464;42.728;23.296;2023-02-03T11:43:28;9.97;;;2.33;;
6850;SDS011;3464;42.728;23.296;2023-02-03T11:46:10;9.77;;;2.60;;
6850;SDS011;3464;42.728;23.296;2023-02-03T11:55:00;10.30;;;3.03;;
6850;SDS011;3464;42.728;23.296;2023-02-03T12:00:42;11.63;;;3.10;;
6850;SDS011;3464;42.728;23.296;2023-02-03T12:03:29;9.63;;;2.37;;
6850;SDS011;3464;42.728;23.296;2023-02-03T12:06:00;11.27;;;2.47;;
6850;SDS011;3464;42.728;23.296;2023-02-03T12:30:24;9.80;;;2.23;;
6850;SDS011;3464;42.728;23.296;2023-02-03T12:32:57;9.20;;;2.13;;
6850;SDS011;3464;42.728;23.296;2023-02-03T12:35:29;8.80;;;2.20;;
6850;SDS011;3464;42.728;23.296;2023-02-03T12:38:00;8.90;;;2.20;;
6850;SDS011;3464;42.728;23.296;2023-02-03T12:40:35;11.20;;;2.37;;
6850;SDS011;3464;42.728;23.296;2023-02-03T12:43:17;12.80;;;2.23;;
6850;SDS011;3464;42.728;23.296;2023-02-03T12:45:38;8.30;;;2.17;;
6850;SDS011;3464;42.728;23.296;2023-02-03T12:48:05;14.47;;;2.37;;
6850;SDS011;3464;42.728;23.296;2023-02-03T12:50:45;9.37;;;2.30;;
6850;SDS011;3464;42.728;23.296;2023-02-03T12:53:16;18.30;;;2.50;;
6850;SDS011;3464;42.728;23.296;2023-02-03T12:55:49;12.17;;;2.70;;
6850;SDS011;3464;42.728;23.296;2023-02-03T12:58:22;9.53;;;2.50;;
6850;SDS011;3464;42.728;23.296;2023-02-03T13:00:50;9.63;;;2.30;;
6850;SDS011;3464;42.728;23.296;2023-02-03T13:06:16;8.97;;;2.33;;
6850;SDS011;3464;42.728;23.296;2023-02-03T13:08:49;10.83;;;2.30;;
6850;SDS011;3464;42.728;23.296;2023-02-03T13:11:21;11.10;;;2.50;;
6850;SDS011;3464;42.728;23.296;2023-02-03T13:13:48;12.70;;;3.20;;
6850;SDS011;3464;42.728;23.296;2023-02-03T13:16:13;11.57;;;2.40;;
6850;SDS011;3464;42.728;23.296;2023-02-03T13:18:41;10.60;;;3.13;;
6850;SDS011;3464;42.728;23.296;2023-02-03T13:21:09;11.80;;;2.60;;
6850;SDS011;3464;42.728;23.296;2023-02-03T13:23:35;10.60;;;2.93;;
6850;SDS011;3464;42.728;23.296;2023-02-03T13:31:15;12.37;;;2.80;;
6850;SDS011;3464;42.728;23.296;2023-02-03T13:33:47;9.40;;;2.90;;
6850;SDS011;3464;42.728;23.296;2023-02-03T13:36:50;10.50;;;2.60;;
6850;SDS011;3464;42.728;23.296;2023-02-03T13:39:09;9.80;;;2.93;;
6850;SDS011;3464;42.728;23.296;2023-02-03T13:41:46;10.70;;;2.70;;
6850;SDS011;3464;42.728;23.296;2023-02-03T13:44:12;10.40;;;2.90;;
6850;SDS011;3464;42.728;23.296;2023-02-03T13:46:38;10.20;;;3.00;;
6850;SDS011;3464;42.728;23.296;2023-02-03T13:49:05;12.43;;;3.27;;
6850;SDS011;3464;42.728;23.296;2023-02-03T13:51:33;10.20;;;2.97;;
6850;SDS011;3464;42.728;23.296;2023-02-03T13:54:01;9.97;;;2.90;;
6850;SDS011;3464;42.728;23.296;2023-02-03T13:56:26;12.90;;;3.47;;
6850;SDS011;3464;42.728;23.296;2023-02-03T13:58:59;9.00;;;2.60;;
6850;SDS011;3464;42.728;23.296;2023-02-03T14:01:27;10.40;;;2.93;;
6850;SDS011;3464;42.728;23.296;2023-02-03T14:03:53;11.00;;;3.00;;
6850;SDS011;3464;42.728;23.296;2023-02-03T14:06:54;11.50;;;3.60;;
6850;SDS011;3464;42.728;23.296;2023-02-03T14:09:22;11.43;;;3.17;;
6850;SDS011;3464;42.728;23.296;2023-02-03T14:12:11;10.90;;;3.27;;
6850;SDS011;3464;42.728;23.296;2023-02-03T14:20:36;13.03;;;3.50;;
6850;SDS011;3464;42.728;23.296;2023-02-03T14:23:13;10.77;;;3.60;;
6850;SDS011;3464;42.728;23.296;2023-02-03T14:25:41;10.83;;;3.87;;
6850;SDS011;3464;42.728;23.296;2023-02-03T14:28:24;11.10;;;3.30;;
6850;SDS011;3464;42.728;23.296;2023-02-03T14:31:09;14.70;;;3.23;;
6850;SDS011;3464;42.728;23.296;2023-02-03T14:38:50;12.93;;;3.67;;
6850;SDS011;3464;42.728;23.296;2023-02-03T14:41:17;15.63;;;3.30;;
6850;SDS011;3464;42.728;23.296;2023-02-03T14:43:48;11.97;;;3.57;;
6850;SDS011;3464;42.728;23.296;2023-02-03T14:47:24;10.77;;;3.30;;
6850;SDS011;3464;42.728;23.296;2023-02-03T14:52:12;11.70;;;3.60;;
6850;SDS011;3464;42.728;23.296;2023-02-03T14:54:53;14.77;;;3.47;;
6850;SDS011;3464;42.728;23.296;2023-02-03T14:57:21;11.00;;;3.40;;
6850;SDS011;3464;42.728;23.296;2023-02-03T15:00:03;12.83;;;3.57;;
6850;SDS011;3464;42.728;23.296;2023-02-03T15:02:29;10.90;;;3.13;;
6850;SDS011;3464;42.728;23.296;2023-02-03T15:07:38;11.63;;;3.30;;
6850;SDS011;3464;42.728;23.296;2023-02-03T15:10:12;13.33;;;3.70;;
6850;SDS011;3464;42.728;23.296;2023-02-03T15:12:37;13.40;;;4.33;;
6850;SDS011;3464;42.728;23.296;2023-02-03T15:17:39;12.07;;;4.20;;
6850;SDS011;3464;42.728;23.296;2023-02-03T15:20:22;11.27;;;3.90;;
6850;SDS011;3464;42.728;23.296;2023-02-03T15:22:52;13.63;;;3.97;;
6850;SDS011;3464;42.728;23.296;2023-02-03T15:25:20;12.23;;;4.43;;
6850;SDS011;3464;42.728;23.296;2023-02-03T15:27:45;12.90;;;4.47;;
6850;SDS011;3464;42.728;23.296;2023-02-03T15:30:15;15.13;;;4.40;;
6850;SDS011;3464;42.728;23.296;2023-02-03T15:32:56;16.27;;;5.20;;
6850;SDS011;3464;42.728;23.296;2023-02-03T15:35:15;13.10;;;4.90;;
6850;SDS011;3464;42.728;23.296;2023-02-03T15:37:42;12.00;;;4.17;;
6850;SDS011;3464;42.728;23.296;2023-02-03T15:40:10;12.17;;;4.27;;
6850;SDS011;3464;42.728;23.296;2023-02-03T15:42:40;15.03;;;4.57;;
6850;SDS011;3464;42.728;23.296;2023-02-03T15:45:16;11.73;;;4.37;;
6850;SDS011;3464;42.728;23.296;2023-02-03T15:47:38;14.57;;;4.53;;
6850;SDS011;3464;42.728;23.296;2023-02-03T15:52:58;14.67;;;5.00;;
6850;SDS011;3464;42.728;23.296;2023-02-03T15:55:27;13.77;;;4.67;;
6850;SDS011;3464;42.728;23.296;2023-02-03T15:57:51;17.63;;;6.20;;
6850;SDS011;3464;42.728;23.296;2023-02-03T16:00:27;13.50;;;5.80;;
6850;SDS011;3464;42.728;23.296;2023-02-03T16:02:54;17.60;;;6.10;;
6850;SDS011;3464;42.728;23.296;2023-02-03T16:10:41;23.23;;;10.73;;
6850;SDS011;3464;42.728;23.296;2023-02-03T16:13:26;24.80;;;10.43;;
6850;SDS011;3464;42.728;23.296;2023-02-03T16:18:57;23.03;;;9.10;;
6850;SDS011;3464;42.728;23.296;2023-02-03T16:21:24;25.00;;;10.30;;
6850;SDS011;3464;42.728;23.296;2023-02-03T16:23:54;23.37;;;10.20;;
6850;SDS011;3464;42.728;23.296;2023-02-03T16:26:22;20.27;;;8.60;;
6850;SDS011;3464;42.728;23.296;2023-02-03T16:29:09;26.03;;;10.73;;
6850;SDS011;3464;42.728;23.296;2023-02-03T16:31:42;21.77;;;9.90;;
6850;SDS011;3464;42.728;23.296;2023-02-03T16:34:15;24.80;;;10.37;;
6850;SDS011;3464;42.728;23.296;2023-02-03T16:36:46;20.63;;;8.57;;
6850;SDS011;3464;42.728;23.296;2023-02-03T16:39:18;24.63;;;9.30;;
6850;SDS011;3464;42.728;23.296;2023-02-03T16:41:51;23.90;;;9.20;;
6850;SDS011;3464;42.728;23.296;2023-02-03T16:44:23;24.63;;;9.70;;
6850;SDS011;3464;42.728;23.296;2023-02-03T16:46:55;22.40;;;9.53;;
6850;SDS011;3464;42.728;23.296;2023-02-03T16:49:28;24.10;;;10.30;;
6850;SDS011;3464;42.728;23.296;2023-02-03T16:52:00;22.63;;;9.83;;
6850;SDS011;3464;42.728;23.296;2023-02-03T16:54:28;20.70;;;9.63;;
6850;SDS011;3464;42.728;23.296;2023-02-03T16:56:55;21.97;;;9.43;;
6850;SDS011;3464;42.728;23.296;2023-02-03T17:04:53;22.37;;;8.67;;
6850;SDS011;3464;42.728;23.296;2023-02-03T17:07:20;18.10;;;7.70;;
6850;SDS011;3464;42.728;23.296;2023-02-03T17:09:46;17.60;;;7.57;;